createdAt,value
2019-02-15T00:00:53.574Z,17.83
2019-02-15T00:03:23.862Z,17.00
2019-02-15T00:05:54.363Z,17.27
2019-02-15T00:08:24.667Z,17.83
2019-02-15T00:10:55.060Z,19.23
2019-02-15T00:13:25.836Z,17.60
2019-02-15T00:15:56.245Z,19.23
2019-02-15T00:18:30.097Z,17.83
2019-02-15T00:21:20.460Z,17.73
2019-02-15T00:23:50.788Z,17.43
2019-02-15T00:26:21.990Z,15.97
2019-02-15T00:28:52.442Z,17.90
2019-02-15T00:31:22.843Z,17.53
2019-02-15T00:33:53.167Z,17.53
2019-02-15T00:36:23.447Z,16.53
2019-02-15T00:38:53.751Z,15.63
2019-02-15T00:41:24.006Z,15.67
2019-02-15T00:43:54.351Z,15.60
2019-02-15T00:46:29.182Z,15.60
2019-02-15T00:49:00.326Z,16.37
2019-02-15T00:51:44.259Z,15.20
2019-02-15T00:54:16.214Z,17.23
2019-02-15T00:56:48.139Z,16.60
2019-02-15T00:59:29.347Z,16.43
2019-02-15T01:02:03.956Z,17.07
2019-02-15T01:04:44.924Z,17.53
2019-02-15T01:07:16.826Z,17.07
2019-02-15T01:09:48.801Z,17.00
2019-02-15T01:12:23.743Z,16.13
2019-02-15T01:14:54.028Z,16.70
2019-02-15T01:17:24.298Z,16.73
2019-02-15T01:19:54.648Z,17.23
2019-02-15T01:22:24.898Z,17.97
2019-02-15T01:24:55.183Z,17.13
2019-02-15T01:27:27.902Z,17.03
2019-02-15T01:30:02.741Z,17.37
2019-02-15T01:32:34.679Z,15.90
2019-02-15T01:35:15.771Z,17.57
2019-02-15T01:37:57.793Z,17.57
2019-02-15T01:40:32.833Z,17.93
2019-02-15T01:43:04.753Z,17.70
2019-02-15T01:45:36.683Z,18.20
2019-02-15T01:48:06.948Z,18.60
2019-02-15T01:50:38.304Z,17.87
2019-02-15T01:53:08.579Z,18.97
2019-02-15T01:55:38.859Z,19.13
2019-02-15T01:58:09.145Z,17.33
2019-02-15T02:00:39.530Z,17.23
2019-02-15T02:03:09.782Z,17.00
2019-02-15T02:05:40.075Z,17.67
2019-02-15T02:08:11.992Z,18.57
2019-02-15T02:10:42.293Z,17.97
2019-02-15T02:13:12.543Z,18.03
2019-02-15T02:15:42.825Z,18.60
2019-02-15T02:18:13.081Z,18.67
2019-02-15T02:20:43.729Z,18.77
2019-02-15T02:23:13.983Z,18.10
2019-02-15T02:25:44.266Z,17.10
2019-02-15T02:28:15.418Z,19.33
2019-02-15T02:30:45.696Z,17.17
2019-02-15T02:33:15.970Z,17.33
2019-02-15T02:38:22.465Z,18.27
2019-02-15T02:40:52.757Z,17.90
2019-02-15T02:43:23.046Z,18.80
2019-02-15T02:45:53.324Z,18.43
2019-02-15T02:48:23.610Z,18.03
2019-02-15T02:50:53.886Z,19.00
2019-02-15T02:53:24.185Z,19.40
2019-02-15T02:55:54.524Z,18.73
2019-02-15T02:58:24.781Z,18.97
2019-02-15T03:00:55.242Z,20.10
2019-02-15T03:03:25.513Z,19.40
2019-02-15T03:05:55.788Z,20.67
2019-02-15T03:08:26.044Z,19.40
2019-02-15T03:10:56.397Z,18.10
2019-02-15T03:13:26.665Z,19.33
2019-02-15T03:15:56.933Z,19.47
2019-02-15T03:18:27.186Z,19.53
2019-02-15T03:20:57.475Z,18.63
2019-02-15T03:23:27.743Z,18.53
2019-02-15T03:25:58.073Z,18.50
2019-02-15T03:28:28.319Z,18.87
2019-02-15T03:30:58.597Z,18.77
2019-02-15T03:33:28.868Z,17.90
2019-02-15T03:36:00.790Z,18.07
2019-02-15T03:38:35.383Z,19.47
2019-02-15T03:41:07.317Z,17.20
2019-02-15T03:43:37.601Z,14.97
2019-02-15T03:46:07.856Z,17.77
2019-02-15T03:48:38.142Z,19.53
2019-02-15T03:51:08.418Z,18.33
2019-02-15T03:53:38.695Z,18.53
2019-02-15T03:56:08.971Z,18.97
2019-02-15T03:58:39.212Z,18.57
2019-02-15T04:01:10.474Z,17.20
2019-02-15T04:03:40.717Z,18.13
2019-02-15T04:06:12.108Z,18.47
2019-02-15T04:08:44.407Z,17.93
2019-02-15T04:11:14.662Z,18.13
2019-02-15T04:13:44.923Z,17.97
2019-02-15T04:16:15.206Z,18.27
2019-02-15T04:18:45.460Z,18.03
2019-02-15T04:21:15.741Z,17.47
2019-02-15T04:23:45.989Z,18.27
2019-02-15T04:26:16.295Z,17.63
2019-02-15T04:28:46.560Z,18.67
2019-02-15T04:31:16.831Z,17.67
2019-02-15T04:33:47.228Z,18.97
2019-02-15T04:36:17.499Z,17.60
2019-02-15T04:38:47.780Z,17.27
2019-02-15T04:41:18.042Z,18.23
2019-02-15T04:43:48.306Z,16.77
2019-02-15T04:46:18.609Z,12.23
2019-02-15T04:48:48.885Z,11.77
2019-02-15T04:51:19.173Z,14.77
2019-02-15T04:53:49.446Z,13.53
2019-02-15T04:56:19.709Z,14.40
2019-02-15T04:58:49.995Z,17.00
2019-02-15T05:01:20.265Z,16.87
2019-02-15T05:03:50.614Z,13.70
2019-02-15T05:06:20.891Z,13.23
2019-02-15T05:08:51.235Z,14.63
2019-02-15T05:11:21.543Z,17.10
2019-02-15T05:13:51.801Z,18.17
2019-02-15T05:16:22.097Z,17.33
2019-02-15T05:18:52.377Z,17.80
2019-02-15T05:21:22.642Z,20.43
2019-02-15T05:23:53.011Z,20.40
2019-02-15T05:26:23.297Z,18.80
2019-02-15T05:28:54.383Z,18.80
2019-02-15T05:31:24.635Z,19.73
2019-02-15T05:33:54.906Z,19.37
2019-02-15T05:36:25.200Z,20.50
2019-02-15T05:38:55.454Z,20.30
2019-02-15T05:41:26.107Z,20.43
2019-02-15T05:43:56.361Z,18.57
2019-02-15T05:46:26.644Z,19.00
2019-02-15T05:48:56.913Z,16.33
2019-02-15T05:51:27.187Z,18.47
2019-02-15T05:53:57.502Z,19.03
2019-02-15T05:56:27.762Z,17.60
2019-02-15T05:58:58.059Z,18.83
2019-02-15T06:01:28.765Z,19.63
2019-02-15T06:03:59.149Z,17.70
2019-02-15T06:06:30.977Z,18.00
2019-02-15T06:09:01.251Z,18.83
2019-02-15T06:11:32.607Z,19.77
2019-02-15T06:14:02.865Z,21.60
2019-02-15T06:16:33.135Z,20.70
2019-02-15T06:19:03.397Z,20.87
2019-02-15T06:21:33.662Z,19.33
2019-02-15T06:24:03.920Z,21.43
2019-02-15T06:26:34.205Z,22.00
2019-02-15T06:29:05.264Z,22.27
2019-02-15T06:31:35.535Z,22.03
2019-02-15T06:34:05.908Z,22.83
2019-02-15T06:36:36.598Z,20.93
2019-02-15T06:39:07.369Z,19.90
2019-02-15T06:41:37.682Z,18.97
2019-02-15T06:44:07.968Z,19.63
2019-02-15T06:46:38.235Z,17.00
2019-02-15T06:49:08.508Z,17.70
2019-02-15T06:51:38.778Z,20.10
2019-02-15T06:54:09.058Z,18.80
2019-02-15T06:56:39.362Z,19.47
2019-02-15T06:59:20.135Z,17.27
2019-02-15T07:01:52.047Z,19.80
2019-02-15T07:04:26.986Z,18.50
2019-02-15T07:06:57.238Z,20.30
2019-02-15T07:09:27.549Z,19.33
2019-02-15T07:11:57.775Z,18.87
2019-02-15T07:14:28.035Z,22.40
2019-02-15T07:16:58.296Z,22.00
2019-02-15T07:19:28.558Z,21.50
2019-02-15T07:21:58.805Z,20.37
2019-02-15T07:24:29.057Z,20.73
2019-02-15T07:26:59.325Z,18.90
2019-02-15T07:29:30.383Z,19.30
2019-02-15T07:32:00.630Z,19.33
2019-02-15T07:34:30.894Z,19.20
2019-02-15T07:37:01.206Z,19.80
2019-02-15T07:39:31.491Z,19.40
2019-02-15T07:42:01.778Z,19.60
2019-02-15T07:44:32.103Z,21.17
2019-02-15T07:47:02.442Z,19.00
2019-02-15T07:49:32.749Z,18.77
2019-02-15T07:52:03.011Z,19.27
2019-02-15T07:54:33.256Z,18.33
2019-02-15T07:57:03.512Z,20.40
2019-02-15T07:59:33.795Z,22.13
2019-02-15T08:02:04.066Z,20.63
2019-02-15T08:04:34.335Z,18.60
2019-02-15T08:07:04.595Z,18.70
2019-02-15T08:09:34.846Z,17.47
2019-02-15T08:12:05.404Z,18.37
2019-02-15T08:14:35.904Z,18.93
2019-02-15T08:17:06.115Z,20.53
2019-02-15T08:19:36.395Z,18.53
2019-02-15T08:22:06.679Z,20.13
2019-02-15T08:24:37.060Z,20.93
2019-02-15T08:27:07.395Z,19.87
2019-02-15T08:29:43.369Z,16.80
2019-02-15T08:32:14.562Z,16.63
2019-02-15T08:34:45.194Z,19.47
2019-02-15T08:37:15.759Z,18.97
2019-02-15T08:39:46.201Z,16.63
2019-02-15T08:42:16.523Z,19.73
2019-02-15T08:44:46.809Z,18.13
2019-02-15T08:47:17.140Z,18.27
2019-02-15T08:49:47.739Z,17.27
2019-02-15T08:52:18.431Z,18.43
2019-02-15T08:54:48.762Z,19.03
2019-02-15T08:57:19.019Z,17.83
2019-02-15T08:59:49.389Z,18.67
2019-02-15T09:02:21.424Z,18.77
2019-02-15T09:04:53.299Z,17.40
2019-02-15T09:07:23.754Z,17.03
2019-02-15T09:09:54.053Z,19.23
2019-02-15T09:12:24.313Z,18.03
2019-02-15T09:14:54.668Z,18.07
2019-02-15T09:17:25.113Z,19.23
2019-02-15T09:19:55.419Z,19.37
2019-02-15T09:22:25.737Z,17.03
2019-02-15T09:24:56.090Z,20.10
2019-02-15T09:27:28.057Z,18.90
2019-02-15T09:29:59.166Z,19.83
2019-02-15T09:32:29.573Z,19.97
2019-02-15T09:34:59.854Z,19.77
2019-02-15T09:37:30.135Z,20.27
2019-02-15T09:40:00.421Z,26.00
2019-02-15T09:42:30.678Z,22.03
2019-02-15T09:53:08.976Z,21.50
2019-02-15T09:55:39.250Z,24.07
2019-02-15T09:58:09.551Z,27.47
2019-02-15T10:00:39.826Z,27.30
2019-02-15T10:03:10.095Z,26.20
2019-02-15T10:05:40.343Z,25.17
2019-02-15T10:08:10.732Z,26.67
2019-02-15T10:10:42.119Z,24.97
2019-02-15T10:13:12.388Z,29.03
2019-02-15T10:15:42.636Z,23.67
2019-02-15T10:18:12.922Z,29.47
2019-02-15T10:20:43.281Z,29.27
2019-02-15T10:23:13.559Z,25.67
2019-02-15T10:25:43.872Z,33.30
2019-02-15T10:28:14.224Z,23.93
2019-02-15T10:30:45.291Z,29.40
2019-02-15T10:33:15.757Z,23.53
2019-02-15T10:35:46.074Z,24.43
2019-02-15T10:38:16.430Z,21.17
2019-02-15T10:40:46.693Z,17.93
2019-02-15T10:43:17.036Z,18.63
2019-02-15T10:45:47.485Z,20.77
2019-02-15T10:48:17.752Z,25.10
2019-02-15T10:50:48.056Z,21.93
2019-02-15T10:53:18.271Z,24.77
2019-02-15T10:55:48.711Z,22.00
2019-02-15T10:58:18.967Z,26.40
2019-02-15T11:00:49.406Z,23.93
2019-02-15T11:03:19.655Z,20.07
2019-02-15T11:05:49.920Z,25.33
2019-02-15T11:08:20.181Z,18.77
2019-02-15T11:10:50.456Z,18.90
2019-02-15T11:13:20.724Z,29.87
2019-02-15T11:15:52.682Z,22.43
2019-02-15T11:18:22.955Z,26.93
2019-02-15T11:20:53.241Z,22.87
2019-02-15T11:23:23.669Z,26.00
2019-02-15T11:25:53.948Z,29.63
2019-02-15T11:28:24.157Z,23.60
2019-02-15T11:30:54.414Z,25.93
2019-02-15T11:33:24.660Z,25.23
2019-02-15T11:35:54.946Z,28.50
2019-02-15T11:38:26.654Z,29.50
2019-02-15T11:40:56.898Z,26.77
2019-02-15T11:43:27.352Z,23.97
2019-02-15T11:45:57.723Z,17.03
2019-02-15T11:48:29.454Z,24.60
2019-02-15T11:50:59.996Z,17.50
2019-02-15T11:53:30.267Z,26.70
2019-02-15T11:56:01.392Z,26.00
2019-02-15T11:58:31.667Z,21.47
2019-02-15T12:01:01.917Z,25.87
2019-02-15T12:03:33.680Z,27.57
2019-02-15T12:06:04.235Z,25.60
2019-02-15T12:08:34.507Z,29.83
2019-02-15T12:11:04.868Z,29.93
2019-02-15T12:13:35.197Z,31.20
2019-02-15T12:16:05.465Z,33.73
2019-02-15T12:18:35.723Z,30.27
2019-02-15T12:21:06.072Z,31.73
2019-02-15T12:23:37.966Z,29.20
2019-02-15T12:26:08.303Z,29.00
2019-02-15T12:28:38.568Z,30.77
2019-02-15T12:31:08.826Z,29.03
2019-02-15T12:33:39.103Z,26.00
2019-02-15T12:36:09.377Z,23.93
2019-02-15T12:38:39.710Z,25.47
2019-02-15T12:41:09.986Z,30.27
2019-02-15T12:43:40.310Z,30.50
2019-02-15T12:46:10.765Z,30.37
2019-02-15T12:48:41.058Z,34.07
2019-02-15T12:51:11.417Z,25.73
2019-02-15T12:53:41.681Z,27.07
2019-02-15T12:56:11.949Z,33.27
2019-02-15T12:58:42.305Z,27.97
2019-02-15T13:01:12.566Z,28.93
2019-02-15T13:03:42.940Z,29.83
2019-02-15T13:06:13.308Z,32.53
2019-02-15T13:08:43.671Z,31.47
2019-02-15T13:11:14.598Z,23.40
2019-02-15T13:13:45.023Z,37.10
2019-02-15T13:16:15.272Z,34.57
2019-02-15T13:18:45.582Z,30.07
2019-02-15T13:21:15.909Z,27.73
2019-02-15T13:23:46.193Z,29.93
2019-02-15T13:26:16.528Z,28.37
2019-02-15T13:28:46.841Z,34.87
2019-02-15T13:31:17.107Z,29.23
2019-02-15T13:33:47.383Z,22.37
2019-02-15T13:36:17.781Z,24.40
2019-02-15T13:38:48.062Z,24.03
2019-02-15T13:41:18.314Z,26.27
2019-02-15T13:43:48.931Z,29.03
2019-02-15T13:46:19.310Z,25.70
2019-02-15T13:48:49.657Z,27.53
2019-02-15T13:51:20.002Z,25.27
2019-02-15T13:53:50.298Z,28.43
2019-02-15T13:56:20.683Z,33.67
2019-02-15T13:58:50.968Z,24.77
2019-02-15T14:01:21.301Z,23.60
2019-02-15T14:03:51.637Z,20.97
2019-02-15T14:06:23.066Z,30.80
2019-02-15T14:08:54.418Z,30.10
2019-02-15T14:11:28.656Z,29.17
2019-02-15T14:13:59.075Z,29.17
2019-02-15T14:16:29.422Z,31.03
2019-02-15T14:18:59.734Z,23.37
2019-02-15T14:21:30.009Z,24.20
2019-02-15T14:24:00.352Z,23.77
2019-02-15T14:26:32.251Z,27.23
2019-02-15T14:29:02.578Z,20.67
2019-02-15T14:31:33.865Z,24.63
2019-02-15T14:34:05.195Z,23.20
2019-02-15T14:36:35.724Z,23.43
2019-02-15T14:39:07.861Z,23.03
2019-02-15T14:41:38.220Z,24.87
2019-02-15T14:44:08.815Z,29.83
2019-02-15T14:46:43.442Z,29.73
2019-02-15T14:49:14.227Z,26.33
2019-02-15T14:51:44.582Z,22.77
2019-02-15T14:54:14.841Z,26.23
2019-02-15T14:56:45.108Z,25.03
2019-02-15T14:59:15.379Z,29.00
2019-02-15T15:01:45.910Z,28.30
2019-02-15T15:04:16.171Z,32.07
2019-02-15T15:06:46.735Z,34.37
2019-02-15T15:09:17.607Z,33.77
2019-02-15T15:11:48.021Z,33.20
2019-02-15T15:14:18.257Z,30.80
2019-02-15T15:16:48.568Z,33.53
2019-02-15T15:19:18.923Z,32.43
2019-02-15T15:21:49.308Z,32.13
2019-02-15T15:24:25.173Z,28.03
2019-02-15T15:26:55.734Z,23.23
2019-02-15T15:29:34.563Z,30.60
2019-02-15T15:32:06.938Z,25.83
2019-02-15T15:38:22.451Z,32.60
2019-02-15T15:41:01.572Z,31.13
2019-02-15T15:43:31.906Z,32.70
2019-02-15T15:46:02.236Z,30.87
2019-02-15T15:48:32.658Z,27.33
2019-02-15T15:51:02.939Z,26.63
2019-02-15T15:53:33.323Z,28.43
2019-02-15T15:56:03.622Z,26.70
2019-02-15T15:58:33.990Z,23.70
2019-02-15T16:01:04.375Z,30.87
2019-02-15T16:03:34.789Z,29.30
2019-02-15T16:06:05.109Z,44.53
2019-02-15T16:08:35.536Z,40.57
2019-02-15T16:11:05.805Z,49.50
2019-02-15T16:13:39.975Z,47.23
2019-02-15T16:16:10.355Z,47.47
2019-02-15T16:18:40.701Z,51.13
2019-02-15T16:21:11.182Z,64.27
2019-02-15T16:23:41.449Z,85.40
2019-02-15T16:26:11.927Z,51.60
2019-02-15T16:28:42.295Z,51.13
2019-02-15T16:31:12.576Z,49.90
2019-02-15T16:33:42.961Z,53.07
2019-02-15T16:36:13.252Z,39.30
2019-02-15T16:38:43.563Z,28.70
2019-02-15T16:41:13.850Z,35.40
2019-02-15T16:43:44.105Z,34.77
2019-02-15T16:46:14.440Z,31.83
2019-02-15T16:48:44.597Z,33.13
2019-02-15T16:51:14.902Z,33.07
2019-02-15T16:53:45.177Z,32.40
2019-02-15T16:56:15.507Z,32.17
2019-02-15T16:58:45.844Z,30.67
2019-02-15T17:01:16.238Z,31.13
2019-02-15T17:03:46.607Z,31.87
2019-02-15T17:06:23.413Z,45.37
2019-02-15T17:08:55.495Z,42.10
2019-02-15T17:11:30.304Z,34.73
2019-02-15T17:14:07.640Z,34.37
2019-02-15T17:16:39.299Z,43.87
2019-02-15T17:19:09.655Z,42.27
2019-02-15T17:21:40.149Z,36.37
2019-02-15T17:24:11.554Z,32.80
2019-02-15T17:26:41.812Z,34.17
2019-02-15T17:29:12.167Z,31.97
2019-02-15T17:31:42.599Z,31.90
2019-02-15T17:34:13.735Z,35.90
2019-02-15T17:36:44.128Z,36.77
2019-02-15T17:39:21.924Z,38.13
2019-02-15T17:41:53.014Z,38.67
2019-02-15T17:44:23.287Z,39.37
2019-02-15T17:46:53.751Z,38.23
2019-02-15T17:49:24.321Z,41.33
2019-02-15T17:51:54.767Z,35.37
2019-02-15T17:54:25.172Z,43.20
2019-02-15T17:56:55.591Z,43.50
2019-02-15T17:59:26.098Z,49.47
2019-02-15T18:01:56.492Z,40.97
2019-02-15T18:04:26.857Z,35.77
2019-02-15T18:06:58.857Z,44.27
2019-02-15T18:09:29.241Z,54.73
2019-02-15T18:12:00.604Z,37.70
2019-02-15T18:14:30.876Z,38.50
2019-02-15T18:17:01.310Z,41.40
2019-02-15T18:19:32.148Z,48.57
2019-02-15T18:22:03.106Z,54.63
2019-02-15T18:24:34.802Z,46.03
2019-02-15T18:27:23.528Z,42.20
2019-02-15T18:29:55.581Z,44.33
2019-02-15T18:32:27.426Z,30.57
2019-02-15T18:34:58.614Z,38.63
2019-02-15T18:45:28.794Z,41.93
2019-02-15T18:48:00.985Z,40.53
2019-02-15T18:50:37.181Z,40.60
2019-02-15T18:53:07.612Z,35.07
2019-02-15T18:55:38.093Z,29.00
2019-02-15T18:58:09.714Z,25.73
2019-02-15T19:00:41.816Z,23.40
2019-02-15T19:03:12.846Z,24.67
2019-02-15T19:05:43.433Z,27.93
2019-02-15T19:08:13.766Z,23.83
2019-02-15T19:10:44.585Z,27.23
2019-02-15T19:13:14.839Z,19.23
2019-02-15T19:15:46.039Z,23.10
2019-02-15T19:18:16.405Z,27.33
2019-02-15T19:20:47.076Z,34.87
2019-02-15T19:23:20.747Z,31.77
2019-02-15T19:25:53.920Z,36.63
2019-02-15T19:29:09.846Z,37.23
2019-02-15T19:31:41.675Z,34.20
2019-02-15T19:34:12.937Z,32.33
2019-02-15T19:36:46.402Z,33.23
2019-02-15T19:39:16.878Z,32.30
2019-02-15T19:41:50.363Z,29.23
2019-02-15T19:44:25.213Z,30.77
2019-02-15T19:47:00.855Z,32.27
2019-02-15T19:49:38.568Z,30.33
2019-02-15T19:52:08.935Z,29.57
2019-02-15T19:54:47.355Z,31.00
2019-02-15T19:57:19.298Z,27.07
2019-02-15T20:04:16.339Z,25.53
2019-02-15T20:06:51.270Z,27.20
2019-02-15T20:09:27.345Z,25.17
2019-02-15T20:12:00.794Z,22.33
2019-02-15T20:14:38.368Z,21.87
2019-02-15T20:17:11.497Z,22.20
2019-02-15T20:19:48.667Z,20.30
2019-02-15T20:26:24.209Z,20.47
2019-02-15T20:28:57.259Z,19.17
2019-02-15T20:31:28.399Z,20.00
2019-02-15T20:33:58.769Z,20.10
2019-02-15T20:36:35.227Z,18.70
2019-02-15T20:39:06.610Z,20.20
2019-02-15T20:41:46.135Z,26.37
2019-02-15T20:44:20.979Z,28.27
2019-02-15T20:46:54.635Z,29.03
2019-02-15T20:49:27.883Z,33.77
2019-02-15T20:51:58.519Z,36.83
2019-02-15T20:54:30.100Z,35.77
2019-02-15T20:57:04.622Z,33.77
2019-02-15T20:59:38.022Z,30.73
2019-02-15T21:02:11.466Z,27.17
2019-02-15T21:04:42.904Z,28.57
2019-02-15T21:07:15.770Z,27.40
2019-02-15T21:09:48.443Z,24.80
2019-02-15T21:12:20.851Z,24.67
2019-02-15T21:14:53.424Z,26.20
2019-02-15T21:17:23.682Z,25.47
2019-02-15T21:19:54.287Z,22.40
2019-02-15T21:22:25.657Z,22.63
2019-02-15T21:24:57.571Z,21.57
2019-02-15T21:27:29.037Z,21.20
2019-02-15T21:30:11.828Z,23.57
2019-02-15T21:32:42.685Z,28.57
2019-02-15T21:35:13.280Z,29.10
2019-02-15T21:37:43.584Z,31.03
2019-02-15T21:40:18.240Z,29.83
2019-02-15T21:42:49.015Z,27.37
2019-02-15T21:45:20.654Z,22.87
2019-02-15T21:47:56.651Z,33.10
2019-02-15T21:50:29.958Z,31.00
2019-02-15T21:53:00.603Z,28.83
2019-02-15T21:55:32.501Z,33.67
2019-02-15T21:58:03.661Z,35.70
2019-02-15T22:00:34.486Z,33.77
2019-02-15T22:03:05.709Z,35.30
2019-02-15T22:05:37.809Z,37.40
2019-02-15T22:08:11.939Z,37.50
2019-02-15T22:10:43.909Z,36.20
2019-02-15T22:13:16.865Z,36.37
2019-02-15T22:15:47.834Z,37.33
2019-02-15T22:18:20.896Z,39.90
2019-02-15T22:20:51.797Z,39.73
2019-02-15T22:23:22.390Z,38.23
2019-02-15T22:25:52.731Z,37.60
2019-02-15T22:28:25.606Z,37.83
2019-02-15T22:34:57.926Z,35.87
2019-02-15T22:37:29.704Z,35.63
2019-02-15T22:40:04.273Z,35.50
2019-02-15T22:42:36.993Z,34.10
2019-02-15T22:45:08.437Z,35.03
2019-02-15T22:47:38.733Z,35.17
2019-02-15T22:50:11.143Z,33.53
2019-02-15T22:52:42.037Z,40.03
2019-02-15T22:55:13.303Z,35.10
2019-02-15T22:57:43.620Z,37.20
2019-02-15T23:00:48.730Z,38.40
2019-02-15T23:03:21.354Z,42.00
2019-02-15T23:05:53.446Z,38.07
2019-02-15T23:08:27.220Z,39.73
2019-02-15T23:10:58.313Z,38.90
2019-02-15T23:13:28.594Z,38.10
2019-02-15T23:15:59.175Z,38.30
2019-02-15T23:18:29.589Z,36.20
2019-02-15T23:20:59.921Z,33.97
2019-02-15T23:23:30.189Z,30.77
2019-02-15T23:26:00.719Z,36.37
2019-02-15T23:28:31.203Z,32.60
2019-02-15T23:31:01.750Z,37.33
2019-02-15T23:33:32.384Z,28.83
2019-02-15T23:36:02.897Z,30.57
2019-02-15T23:38:33.303Z,31.30
2019-02-15T23:41:03.792Z,28.20
2019-02-15T23:43:34.388Z,27.00
2019-02-15T23:46:04.889Z,26.83
2019-02-15T23:48:35.170Z,25.47
2019-02-15T23:51:05.646Z,28.03
2019-02-15T23:53:36.520Z,26.97
2019-02-15T23:56:07.143Z,29.03
2019-02-15T23:58:37.831Z,28.07
